createdAt,value
2018-08-28T00:00:10.334Z,1016.77
2018-08-28T00:01:19.908Z,1016.75
2018-08-28T00:02:29.745Z,1016.72
2018-08-28T00:03:39.319Z,1016.76
2018-08-28T00:04:48.887Z,1016.82
2018-08-28T00:05:58.729Z,1016.76
2018-08-28T00:07:08.574Z,1016.83
2018-08-28T00:08:18.413Z,1016.88
2018-08-28T00:09:27.991Z,1016.85
2018-08-28T00:10:37.558Z,1016.84
2018-08-28T00:11:47.725Z,1016.85
2018-08-28T00:12:57.293Z,1016.84
2018-08-28T00:14:06.596Z,1016.8
2018-08-28T00:15:16.178Z,1016.88
2018-08-28T00:16:26.294Z,1016.9
2018-08-28T00:17:35.869Z,1016.86
2018-08-28T00:18:45.711Z,1016.85
2018-08-28T00:19:55.288Z,1016.91
2018-08-28T00:21:05.143Z,1016.9
2018-08-28T00:22:14.714Z,1016.92
2018-08-28T00:23:24.831Z,1016.96
2018-08-28T00:24:34.688Z,1016.9
2018-08-28T00:25:44.540Z,1016.93
2018-08-28T00:26:54.388Z,1016.96
2018-08-28T00:28:04.237Z,1016.97
2018-08-28T00:29:13.267Z,1016.96
2018-08-28T00:30:23.380Z,1016.99
2018-08-28T00:31:32.959Z,1016.99
2018-08-28T00:32:42.537Z,1017.01
2018-08-28T00:33:52.656Z,1016.99
2018-08-28T00:35:01.961Z,1017.03
2018-08-28T00:36:11.262Z,1017.04
2018-08-28T00:37:21.383Z,1017.01
2018-08-28T00:38:31.495Z,1017.05
2018-08-28T00:39:41.338Z,1017.02
2018-08-28T00:40:51.177Z,1017.04
2018-08-28T00:42:01.309Z,1017.06
2018-08-28T00:43:10.881Z,1017.07
2018-08-28T00:44:20.185Z,1017.1
2018-08-28T00:45:29.754Z,1017.12
2018-08-28T00:46:39.593Z,1017.1
2018-08-28T00:47:49.710Z,1017.13
2018-08-28T00:48:59.279Z,1017.13
2018-08-28T00:50:08.850Z,1017.13
2018-08-28T00:51:18.963Z,1017.15
2018-08-28T00:52:28.921Z,1017.14
2018-08-28T00:53:38.638Z,1017.15
2018-08-28T00:54:47.938Z,1017.16
2018-08-28T00:55:57.781Z,1017.17
2018-08-28T00:57:07.633Z,1017.1
2018-08-28T00:58:17.472Z,1017.11
2018-08-28T00:59:27.591Z,1017.17
2018-08-28T01:00:37.173Z,1017.09
2018-08-28T01:01:46.479Z,1017.15
2018-08-28T01:02:56.589Z,1017.16
2018-08-28T01:04:06.171Z,1017.15
2018-08-28T01:05:15.750Z,1017.16
2018-08-28T01:06:25.862Z,1017.08
2018-08-28T01:07:35.705Z,1017.11
2018-08-28T01:08:45.274Z,1017.09
2018-08-28T01:09:54.850Z,1017.14
2018-08-28T01:11:04.154Z,1017.1
2018-08-28T01:12:14.273Z,1017.08
2018-08-28T01:13:24.118Z,1017.15
2018-08-28T01:14:34.245Z,1017.09
2018-08-28T01:15:43.995Z,1017.15
2018-08-28T01:16:53.840Z,1017.12
2018-08-28T01:18:03.680Z,1017.13
2018-08-28T01:19:13.794Z,1017.08
2018-08-28T01:20:23.639Z,1017.15
2018-08-28T01:21:33.478Z,1017.13
2018-08-28T01:22:43.321Z,1017.18
2018-08-28T01:23:53.435Z,1017.13
2018-08-28T01:25:03.284Z,1017.17
2018-08-28T01:26:12.863Z,1017.2
2018-08-28T01:27:22.715Z,1017.14
2018-08-28T01:28:32.289Z,1017.23
2018-08-28T01:29:41.860Z,1017.28
2018-08-28T01:30:51.163Z,1017.32
2018-08-28T01:32:00.469Z,1017.35
2018-08-28T01:33:10.308Z,1017.24
2018-08-28T01:34:19.883Z,1017.3
2018-08-28T01:35:29.455Z,1017.27
2018-08-28T01:36:39.024Z,1017.28
2018-08-28T01:37:48.605Z,1017.27
2018-08-28T01:38:58.721Z,1017.27
2018-08-28T01:40:08.824Z,1017.29
2018-08-28T01:41:18.943Z,1017.31
2018-08-28T01:42:28.780Z,1017.3
2018-08-28T01:43:38.354Z,1017.3
2018-08-28T01:44:48.473Z,1017.31
2018-08-28T01:45:58.318Z,1017.31
2018-08-28T01:47:07.893Z,1017.34
2018-08-28T01:48:17.739Z,1017.3
2018-08-28T01:49:27.857Z,1017.27
2018-08-28T01:50:37.437Z,1017.3
2018-08-28T01:51:47.007Z,1017.32
2018-08-28T01:52:56.848Z,1017.34
2018-08-28T01:54:06.746Z,1017.32
2018-08-28T01:55:16.322Z,1017.36
2018-08-28T01:56:25.911Z,1017.32
2018-08-28T01:57:35.475Z,1017.35
2018-08-28T01:58:45.052Z,1017.31
2018-08-28T01:59:54.896Z,1017.27
2018-08-28T02:01:04.462Z,1017.27
2018-08-28T02:02:14.574Z,1017.25
2018-08-28T02:03:24.414Z,1017.3
2018-08-28T02:04:33.982Z,1017.34
2018-08-28T02:05:43.825Z,1017.3
2018-08-28T02:06:53.672Z,1017.28
2018-08-28T02:08:03.563Z,1017.3
2018-08-28T02:09:13.412Z,1017.36
2018-08-28T02:10:23.256Z,1017.35
2018-08-28T02:11:32.827Z,1017.4
2018-08-28T02:12:42.414Z,1017.38
2018-08-28T02:13:52.261Z,1017.35
2018-08-28T02:15:01.567Z,1017.36
2018-08-28T02:16:11.416Z,1017.37
2018-08-28T02:17:21.257Z,1017.36
2018-08-28T02:18:31.103Z,1017.34
2018-08-28T02:19:41.214Z,1017.36
2018-08-28T02:20:50.523Z,1017.44
2018-08-28T02:22:00.094Z,1017.4
2018-08-28T02:23:09.675Z,1017.4
2018-08-28T02:24:19.258Z,1017.4
2018-08-28T02:25:29.365Z,1017.44
2018-08-28T02:26:38.666Z,1017.45
2018-08-28T02:27:48.516Z,1017.4
2018-08-28T02:28:58.360Z,1017.51
2018-08-28T02:30:08.478Z,1017.54
2018-08-28T02:31:18.600Z,1017.53
2018-08-28T02:32:31.434Z,1017.5
2018-08-28T02:33:41.650Z,1017.51
2018-08-28T02:34:51.771Z,1017.51
2018-08-28T02:36:01.079Z,1017.53
2018-08-28T02:37:10.656Z,1017.53
2018-08-28T02:38:20.508Z,1017.54
2018-08-28T02:39:30.086Z,1017.51
2018-08-28T02:40:39.945Z,1017.51
2018-08-28T02:41:49.523Z,1017.5
2018-08-28T02:42:58.818Z,1017.49
2018-08-28T02:44:08.926Z,1017.54
2018-08-28T02:45:18.768Z,1017.5
2018-08-28T02:46:28.345Z,1017.47
2018-08-28T02:47:38.179Z,1017.54
2018-08-28T02:48:48.024Z,1017.5
2018-08-28T02:49:57.872Z,1017.43
2018-08-28T02:51:06.904Z,1017.47
2018-08-28T02:52:16.477Z,1017.49
2018-08-28T02:53:26.317Z,1017.54
2018-08-28T02:54:35.897Z,1017.52
2018-08-28T02:55:46.013Z,1017.47
2018-08-28T02:56:55.582Z,1017.47
2018-08-28T02:58:05.428Z,1017.48
2018-08-28T02:59:14.997Z,1017.49
2018-08-28T03:00:24.569Z,1017.52
2018-08-28T03:01:34.691Z,1017.49
2018-08-28T03:02:44.549Z,1017.53
2018-08-28T03:03:54.913Z,1017.5
2018-08-28T03:05:05.037Z,1017.53
2018-08-28T03:06:14.620Z,1017.57
2018-08-28T03:07:24.462Z,1017.57
2018-08-28T03:08:34.318Z,1017.59
2018-08-28T03:09:44.452Z,1017.55
2018-08-28T03:10:54.578Z,1017.59
2018-08-28T03:12:04.694Z,1017.61
2018-08-28T03:13:14.004Z,1017.55
2018-08-28T03:14:24.113Z,1017.61
2018-08-28T03:15:34.254Z,1017.62
2018-08-28T03:16:44.536Z,1017.63
2018-08-28T03:17:54.112Z,1017.65
2018-08-28T03:19:04.230Z,1017.66
2018-08-28T03:20:14.070Z,1017.63
2018-08-28T03:21:24.187Z,1017.65
2018-08-28T03:22:34.028Z,1017.67
2018-08-28T03:23:43.331Z,1017.65
2018-08-28T03:24:52.902Z,1017.67
2018-08-28T03:26:02.201Z,1017.73
2018-08-28T03:27:12.055Z,1017.71
2018-08-28T03:28:21.633Z,1017.69
2018-08-28T03:29:31.480Z,1017.68
2018-08-28T03:30:41.593Z,1017.74
2018-08-28T03:31:51.453Z,1017.75
2018-08-28T03:33:01.035Z,1017.78
2018-08-28T03:34:11.160Z,1017.78
2018-08-28T03:35:20.471Z,1017.78
2018-08-28T03:36:30.577Z,1017.8
2018-08-28T03:37:40.428Z,1017.79
2018-08-28T03:38:50.553Z,1017.8
2018-08-28T03:40:00.394Z,1017.79
2018-08-28T03:41:10.579Z,1017.8
2018-08-28T03:42:20.705Z,1017.8
2018-08-28T03:43:30.895Z,1017.84
2018-08-28T03:44:39.977Z,1017.85
2018-08-28T03:45:50.308Z,1017.82
2018-08-28T03:47:00.153Z,1017.84
2018-08-28T03:48:10.263Z,1017.85
2018-08-28T03:49:20.101Z,1017.86
2018-08-28T03:50:29.949Z,1017.84
2018-08-28T03:51:39.789Z,1017.85
2018-08-28T03:52:49.358Z,1017.88
2018-08-28T03:53:59.236Z,1017.86
2018-08-28T03:55:08.224Z,1017.9
2018-08-28T03:56:17.919Z,1017.95
2018-08-28T03:57:27.756Z,1017.88
2018-08-28T03:58:37.056Z,1017.93
2018-08-28T03:59:46.633Z,1017.9
2018-08-28T04:00:56.205Z,1017.92
2018-08-28T04:02:06.315Z,1017.96
2018-08-28T04:03:16.436Z,1017.98
2018-08-28T04:04:26.553Z,1017.94
2018-08-28T04:05:36.399Z,1017.98
2018-08-28T04:06:45.970Z,1017.98
2018-08-28T04:07:56.084Z,1018
2018-08-28T04:09:06.196Z,1017.98
2018-08-28T04:10:15.507Z,1018.02
2018-08-28T04:11:25.342Z,1017.99
2018-08-28T04:12:35.188Z,1017.99
2018-08-28T04:13:44.768Z,1018.03
2018-08-28T04:14:54.342Z,1018.01
2018-08-28T04:16:03.921Z,1018.04
2018-08-28T04:17:13.882Z,1018.05
2018-08-28T04:18:23.550Z,1018.12
2018-08-28T04:19:33.126Z,1018.11
2018-08-28T04:20:43.246Z,1018.09
2018-08-28T04:21:53.356Z,1018.13
2018-08-28T04:23:03.471Z,1018.1
2018-08-28T04:24:12.766Z,1018.19
2018-08-28T04:25:22.618Z,1018.16
2018-08-28T04:26:32.459Z,1018.17
2018-08-28T04:27:42.026Z,1018.22
2018-08-28T04:28:51.863Z,1018.28
2018-08-28T04:30:01.723Z,1018.27
2018-08-28T04:31:11.026Z,1018.26
2018-08-28T04:32:20.877Z,1018.27
2018-08-28T04:33:30.991Z,1018.26
2018-08-28T04:34:41.123Z,1018.27
2018-08-28T04:35:50.693Z,1018.29
2018-08-28T04:36:59.993Z,1018.28
2018-08-28T04:38:09.569Z,1018.35
2018-08-28T04:39:19.135Z,1018.32
2018-08-28T04:40:28.979Z,1018.34
2018-08-28T04:41:39.148Z,1018.36
2018-08-28T04:42:49.466Z,1018.4
2018-08-28T04:43:59.045Z,1018.42
2018-08-28T04:45:09.166Z,1018.43
2018-08-28T04:46:19.011Z,1018.41
2018-08-28T04:47:28.854Z,1018.42
2018-08-28T04:48:38.729Z,1018.44
2018-08-28T04:49:48.724Z,1018.44
2018-08-28T04:50:58.565Z,1018.48
2018-08-28T04:52:08.408Z,1018.44
2018-08-28T04:53:18.249Z,1018.46
2018-08-28T04:54:28.358Z,1018.48
2018-08-28T04:55:38.201Z,1018.5
2018-08-28T04:56:47.781Z,1018.48
2018-08-28T04:57:57.638Z,1018.5
2018-08-28T04:59:07.212Z,1018.49
2018-08-28T05:00:16.781Z,1018.51
2018-08-28T05:01:26.899Z,1018.51
2018-08-28T05:02:36.744Z,1018.57
2018-08-28T05:03:46.312Z,1018.57
2018-08-28T05:04:55.883Z,1018.55
2018-08-28T05:06:05.459Z,1018.63
2018-08-28T05:07:15.039Z,1018.55
2018-08-28T05:08:24.881Z,1018.57
2018-08-28T05:09:34.455Z,1018.6
2018-08-28T05:10:43.763Z,1018.66
2018-08-28T05:11:53.390Z,1018.65
2018-08-28T05:13:03.517Z,1018.63
2018-08-28T05:14:13.639Z,1018.67
2018-08-28T05:15:23.479Z,1018.69
2018-08-28T05:16:33.589Z,1018.64
2018-08-28T05:17:43.703Z,1018.69
2018-08-28T05:18:53.815Z,1018.7
2018-08-28T05:20:03.931Z,1018.71
2018-08-28T05:21:14.048Z,1018.73
2018-08-28T05:22:23.891Z,1018.71
2018-08-28T05:23:33.469Z,1018.77
2018-08-28T05:24:43.037Z,1018.82
2018-08-28T05:25:52.877Z,1018.82
2018-08-28T05:27:02.188Z,1018.79
2018-08-28T05:28:11.486Z,1018.77
2018-08-28T05:29:21.597Z,1018.79
2018-08-28T05:30:31.335Z,1018.79
2018-08-28T05:31:41.306Z,1018.81
2018-08-28T05:32:51.415Z,1018.85
2018-08-28T05:34:01.263Z,1018.82
2018-08-28T05:35:10.562Z,1018.89
2018-08-28T05:36:20.685Z,1018.87
2018-08-28T05:37:30.522Z,1018.86
2018-08-28T05:38:40.635Z,1018.83
2018-08-28T05:39:50.220Z,1018.88
2018-08-28T05:40:59.252Z,1018.89
2018-08-28T05:42:09.101Z,1018.9
2018-08-28T05:43:18.674Z,1018.92
2018-08-28T05:44:28.247Z,1018.88
2018-08-28T05:45:37.578Z,1018.86
2018-08-28T05:46:47.697Z,1018.9
2018-08-28T05:47:56.730Z,1018.91
2018-08-28T05:49:06.625Z,1018.91
2018-08-28T05:50:15.660Z,1018.92
2018-08-28T05:51:24.698Z,1018.9
2018-08-28T05:52:34.545Z,1018.94
2018-08-28T05:53:44.121Z,1018.93
2018-08-28T05:54:54.032Z,1018.98
2018-08-28T05:56:04.103Z,1018.98
2018-08-28T05:57:14.668Z,1019.05
2018-08-28T05:58:24.508Z,1019.06
2018-08-28T05:59:34.350Z,1019.06
2018-08-28T06:00:43.926Z,1019.05
2018-08-28T06:01:53.506Z,1019.11
2018-08-28T06:03:03.173Z,1019.06
2018-08-28T06:04:13.502Z,1019.08
2018-08-28T06:05:23.621Z,1019.14
2018-08-28T06:06:33.513Z,1019.12
2018-08-28T06:07:43.088Z,1019.13
2018-08-28T06:08:53.047Z,1019.15
2018-08-28T06:10:03.387Z,1019.15
2018-08-28T06:11:13.226Z,1019.15
2018-08-28T06:12:22.804Z,1019.17
2018-08-28T06:13:32.911Z,1019.18
2018-08-28T06:14:41.961Z,1019.21
2018-08-28T06:15:52.734Z,1019.23
2018-08-28T06:17:02.573Z,1019.26
2018-08-28T06:18:12.152Z,1019.26
2018-08-28T06:19:21.734Z,1019.32
2018-08-28T06:20:31.041Z,1019.27
2018-08-28T06:21:40.880Z,1019.32
2018-08-28T06:22:51.071Z,1019.29
2018-08-28T06:24:00.824Z,1019.32
2018-08-28T06:25:10.952Z,1019.33
2018-08-28T06:26:21.094Z,1019.31
2018-08-28T06:27:31.669Z,1019.35
2018-08-28T06:28:40.979Z,1019.37
2018-08-28T06:29:51.148Z,1019.36
2018-08-28T06:31:00.722Z,1019.4
2018-08-28T06:32:10.583Z,1019.39
2018-08-28T06:33:20.423Z,1019.42
2018-08-28T06:34:30.006Z,1019.41
2018-08-28T06:35:39.848Z,1019.4
2018-08-28T06:36:49.427Z,1019.4
2018-08-28T06:37:59.556Z,1019.38
2018-08-28T06:39:09.398Z,1019.39
2018-08-28T06:40:18.968Z,1019.39
2018-08-28T06:41:28.817Z,1019.38
2018-08-28T06:42:38.933Z,1019.4
2018-08-28T06:43:48.563Z,1019.41
2018-08-28T06:44:59.212Z,1019.43
2018-08-28T06:46:08.789Z,1019.42
2018-08-28T06:47:18.916Z,1019.5
2018-08-28T06:48:28.221Z,1019.44
2018-08-28T06:49:37.913Z,1019.48
2018-08-28T06:50:48.001Z,1019.47
2018-08-28T06:51:57.308Z,1019.47
2018-08-28T06:53:07.169Z,1019.49
2018-08-28T06:54:17.337Z,1019.53
2018-08-28T06:55:26.916Z,1019.49
2018-08-28T06:56:36.488Z,1019.51
2018-08-28T06:57:46.451Z,1019.55
2018-08-28T06:58:56.022Z,1019.56
2018-08-28T07:00:05.862Z,1019.53
2018-08-28T07:01:15.165Z,1019.56
2018-08-28T07:02:24.802Z,1019.55
2018-08-28T07:03:35.124Z,1019.57
2018-08-28T07:04:44.749Z,1019.57
2018-08-28T07:05:54.324Z,1019.58
2018-08-28T07:07:04.437Z,1019.58
2018-08-28T07:08:13.738Z,1019.63
2018-08-28T07:09:23.304Z,1019.62
2018-08-28T07:10:32.872Z,1019.59
2018-08-28T07:11:43.010Z,1019.58
2018-08-28T07:12:52.587Z,1019.61
2018-08-28T07:14:02.162Z,1019.61
2018-08-28T07:15:12.004Z,1019.63
2018-08-28T07:16:21.036Z,1019.62
2018-08-28T07:17:30.609Z,1019.64
2018-08-28T07:18:40.222Z,1019.69
2018-08-28T07:19:50.557Z,1019.7
2018-08-28T07:21:00.139Z,1019.73
2018-08-28T07:22:09.709Z,1019.67
2018-08-28T07:23:19.553Z,1019.71
2018-08-28T07:24:29.395Z,1019.74
2018-08-28T07:25:39.365Z,1019.71
2018-08-28T07:26:50.446Z,1019.74
2018-08-28T07:28:00.079Z,1019.74
2018-08-28T07:29:09.663Z,1019.72
2018-08-28T07:30:19.521Z,1019.77
2018-08-28T07:31:29.251Z,1019.77
2018-08-28T07:32:39.694Z,1019.77
2018-08-28T07:33:49.314Z,1019.77
2018-08-28T07:34:58.884Z,1019.8
2018-08-28T07:36:07.920Z,1019.8
2018-08-28T07:37:18.083Z,1019.77
2018-08-28T07:38:28.138Z,1019.81
2018-08-28T07:39:37.709Z,1019.84
2018-08-28T07:40:47.826Z,1019.82
2018-08-28T07:41:57.969Z,1019.84
2018-08-28T07:43:07.280Z,1019.84
2018-08-28T07:44:17.399Z,1019.84
2018-08-28T07:45:27.519Z,1019.9
2018-08-28T07:46:37.653Z,1019.91
2018-08-28T07:47:47.768Z,1019.88
2018-08-28T07:48:57.872Z,1019.86
2018-08-28T07:50:07.447Z,1019.88
2018-08-28T07:51:17.558Z,1019.86
2018-08-28T07:52:27.133Z,1019.93
2018-08-28T07:53:37.251Z,1019.95
2018-08-28T07:54:46.900Z,1019.98
2018-08-28T07:55:56.471Z,1019.92
2018-08-28T07:57:06.319Z,1019.94
2018-08-28T07:58:16.160Z,1019.91
2018-08-28T07:59:26.292Z,1019.91
2018-08-28T08:00:35.596Z,1019.92
2018-08-28T08:01:44.899Z,1019.98
2018-08-28T08:02:54.517Z,1019.95
2018-08-28T08:04:04.635Z,1019.97
2018-08-28T08:05:14.749Z,1019.94
2018-08-28T08:06:24.323Z,1019.98
2018-08-28T08:07:34.163Z,1019.96
2018-08-28T08:08:44.346Z,1020
2018-08-28T08:09:53.923Z,1020.03
2018-08-28T08:11:04.058Z,1020.03
2018-08-28T08:12:13.372Z,1020.06
2018-08-28T08:13:23.484Z,1020.02
2018-08-28T08:14:33.323Z,1020.06
2018-08-28T08:15:43.207Z,1019.99
2018-08-28T08:16:52.609Z,1020.04
2018-08-28T08:18:01.922Z,1020.04
2018-08-28T08:19:12.087Z,1020.02
2018-08-28T08:20:22.202Z,1020.07
2018-08-28T08:21:31.508Z,1020.12
2018-08-28T08:22:40.819Z,1020.05
2018-08-28T08:23:50.404Z,1020.02
2018-08-28T08:24:59.978Z,1020.04
2018-08-28T08:26:09.281Z,1020.06
2018-08-28T08:27:19.405Z,1020
2018-08-28T08:28:29.524Z,1020.02
2018-08-28T08:29:38.833Z,1020.09
2018-08-28T08:30:48.696Z,1020.09
2018-08-28T08:31:58.599Z,1020.05
2018-08-28T08:33:08.719Z,1020.06
2018-08-28T08:34:18.581Z,1020.06
2018-08-28T08:35:28.427Z,1020.1
2018-08-28T08:36:37.467Z,1020.1
2018-08-28T08:37:47.048Z,1020.14
2018-08-28T08:38:56.356Z,1020.2
2018-08-28T08:40:05.669Z,1020.14
2018-08-28T08:41:15.511Z,1020.11
2018-08-28T08:42:25.627Z,1020.11
2018-08-28T08:43:35.204Z,1020.06
2018-08-28T08:44:44.514Z,1020.1
2018-08-28T08:45:54.641Z,1020.09
2018-08-28T08:47:04.219Z,1020.05
2018-08-28T08:48:14.059Z,1020.07
2018-08-28T08:49:23.934Z,1020.07
2018-08-28T08:50:34.057Z,1020.01
2018-08-28T08:51:43.900Z,1020.03
2018-08-28T08:52:53.742Z,1020.02
2018-08-28T08:54:03.046Z,1020.07
2018-08-28T08:55:13.210Z,1020.04
2018-08-28T08:56:22.527Z,1020.06
2018-08-28T08:57:32.202Z,1020.04
2018-08-28T08:58:41.811Z,1020.04
2018-08-28T08:59:51.933Z,1020.1
2018-08-28T09:01:02.080Z,1020.02
2018-08-28T09:02:11.618Z,1020.06
2018-08-28T09:03:21.464Z,1020.04
2018-08-28T09:04:31.317Z,1020.07
2018-08-28T09:05:41.162Z,1020.11
2018-08-28T09:06:51.069Z,1020.09
2018-08-28T09:08:00.650Z,1020.13
2018-08-28T09:09:10.234Z,1020.14
2018-08-28T09:10:19.535Z,1020.15
2018-08-28T09:11:29.375Z,1020.19
2018-08-28T09:12:39.491Z,1020.09
2018-08-28T09:13:49.348Z,1020.14
2018-08-28T09:14:58.926Z,1020.14
2018-08-28T09:16:08.228Z,1020.13
2018-08-28T09:17:17.532Z,1020.16
2018-08-28T09:18:27.404Z,1020.16
2018-08-28T09:19:37.521Z,1020.14
2018-08-28T09:20:47.095Z,1020.1
2018-08-28T09:21:56.666Z,1020.18
2018-08-28T09:23:06.525Z,1020.21
2018-08-28T09:24:16.364Z,1020.12
2018-08-28T09:25:26.209Z,1020.14
2018-08-28T09:26:35.514Z,1020.17
2018-08-28T09:27:45.089Z,1020.18
2018-08-28T09:28:54.936Z,1020.18
2018-08-28T09:30:04.247Z,1020.2
2018-08-28T09:31:14.124Z,1020.23
2018-08-28T09:32:23.864Z,1020.16
2018-08-28T09:33:34.012Z,1020.17
2018-08-28T09:34:43.857Z,1020.19
2018-08-28T09:35:53.976Z,1020.16
2018-08-28T09:37:03.558Z,1020.11
2018-08-28T09:38:13.190Z,1020.27
2018-08-28T09:39:23.223Z,1020.22
2018-08-28T09:40:32.810Z,1020.21
2018-08-28T09:41:42.655Z,1020.18
2018-08-28T09:42:52.628Z,1020.23
2018-08-28T09:44:02.471Z,1020.19
2018-08-28T09:45:11.786Z,1020.23
2018-08-28T09:46:21.913Z,1020.19
2018-08-28T09:47:31.491Z,1020.24
2018-08-28T09:48:40.798Z,1020.23
2018-08-28T09:49:50.716Z,1020.3
2018-08-28T09:51:00.861Z,1020.31
2018-08-28T09:52:11.203Z,1020.33
2018-08-28T09:53:21.043Z,1020.3
2018-08-28T09:54:30.348Z,1020.33
2018-08-28T09:55:39.921Z,1020.33
2018-08-28T09:56:48.958Z,1020.33
2018-08-28T09:57:58.809Z,1020.34
2018-08-28T09:59:08.380Z,1020.34
2018-08-28T10:00:17.694Z,1020.35
2018-08-28T10:01:27.541Z,1020.34
2018-08-28T10:02:37.660Z,1020.43
2018-08-28T10:03:47.243Z,1020.38
2018-08-28T10:04:56.893Z,1020.47
2018-08-28T10:06:06.137Z,1020.39
2018-08-28T10:07:15.982Z,1020.44
2018-08-28T10:08:26.115Z,1020.44
2018-08-28T10:09:35.966Z,1020.42
2018-08-28T10:10:45.829Z,1020.45
2018-08-28T10:11:55.525Z,1020.4
2018-08-28T10:13:05.110Z,1020.38
2018-08-28T10:14:15.225Z,1020.39
2018-08-28T10:15:24.856Z,1020.32
2018-08-28T10:16:34.967Z,1020.35
2018-08-28T10:17:44.539Z,1020.39
2018-08-28T10:18:54.394Z,1020.4
2018-08-28T10:20:04.512Z,1020.45
2018-08-28T10:21:14.099Z,1020.43
2018-08-28T10:22:23.456Z,1020.42
2018-08-28T10:23:33.625Z,1020.47
2018-08-28T10:24:43.468Z,1020.42
2018-08-28T10:25:53.322Z,1020.4
2018-08-28T10:27:02.937Z,1020.4
2018-08-28T10:28:12.791Z,1020.38
2018-08-28T10:29:22.694Z,1020.4
2018-08-28T10:30:31.800Z,1020.43
2018-08-28T10:31:41.302Z,1020.41
2018-08-28T10:32:50.889Z,1020.41
2018-08-28T10:34:00.746Z,1020.41
2018-08-28T10:35:10.059Z,1020.46
2018-08-28T10:36:19.671Z,1020.39
2018-08-28T10:37:28.980Z,1020.38
2018-08-28T10:38:38.277Z,1020.38
2018-08-28T10:39:48.395Z,1020.37
2018-08-28T10:40:57.967Z,1020.38
2018-08-28T10:42:07.279Z,1020.37
2018-08-28T10:43:17.122Z,1020.38
2018-08-28T10:44:26.979Z,1020.4
2018-08-28T10:45:36.821Z,1020.39
2018-08-28T10:46:46.856Z,1020.38
2018-08-28T10:47:56.464Z,1020.36
2018-08-28T10:49:06.041Z,1020.37
2018-08-28T10:50:15.348Z,1020.4
2018-08-28T10:51:24.656Z,1020.38
2018-08-28T10:52:34.306Z,1020.44
2018-08-28T10:53:43.610Z,1020.49
2018-08-28T10:54:53.458Z,1020.49
2018-08-28T10:56:03.610Z,1020.47
2018-08-28T10:57:12.927Z,1020.55
2018-08-28T10:58:22.787Z,1020.49
2018-08-28T10:59:32.395Z,1020.52
2018-08-28T11:00:41.707Z,1020.51
2018-08-28T11:01:51.342Z,1020.56
2018-08-28T11:03:00.917Z,1020.57
2018-08-28T11:04:10.497Z,1020.56
2018-08-28T11:05:20.648Z,1020.59
2018-08-28T11:06:29.956Z,1020.62
2018-08-28T11:07:39.555Z,1020.62
2018-08-28T11:08:49.776Z,1020.68
2018-08-28T11:10:00.135Z,1020.67
2018-08-28T11:11:09.985Z,1020.63
2018-08-28T11:12:19.836Z,1020.69
2018-08-28T11:13:29.139Z,1020.63
2018-08-28T11:14:38.985Z,1020.68
2018-08-28T11:15:48.287Z,1020.68
2018-08-28T11:16:57.935Z,1020.7
2018-08-28T11:18:07.516Z,1020.75
2018-08-28T11:19:17.371Z,1020.76
2018-08-28T11:20:26.948Z,1020.69
2018-08-28T11:21:36.847Z,1020.73
2018-08-28T11:22:46.719Z,1020.78
2018-08-28T11:23:56.746Z,1020.73
2018-08-28T11:25:06.598Z,1020.72
2018-08-28T11:26:16.725Z,1020.74
2018-08-28T11:27:26.853Z,1020.78
2018-08-28T11:28:36.424Z,1020.73
2018-08-28T11:29:46.538Z,1020.76
2018-08-28T11:30:55.853Z,1020.76
2018-08-28T11:32:05.702Z,1020.77
2018-08-28T11:33:15.549Z,1020.78
2018-08-28T11:34:25.125Z,1020.8
2018-08-28T11:35:35.274Z,1020.84
2018-08-28T11:36:45.431Z,1020.84
2018-08-28T11:37:55.273Z,1020.83
2018-08-28T11:39:04.625Z,1020.85
2018-08-28T11:40:14.206Z,1020.82
2018-08-28T11:41:23.244Z,1020.81
2018-08-28T11:42:33.134Z,1020.84
2018-08-28T11:43:42.726Z,1020.86
2018-08-28T11:44:52.839Z,1020.86
2018-08-28T11:46:02.688Z,1020.84
2018-08-28T11:47:12.660Z,1020.87
2018-08-28T11:48:22.397Z,1020.88
2018-08-28T11:49:32.541Z,1020.85
2018-08-28T11:50:42.666Z,1020.89
2018-08-28T11:51:52.238Z,1020.85
2018-08-28T11:53:01.870Z,1020.9
2018-08-28T11:54:11.851Z,1020.88
2018-08-28T11:55:20.936Z,1020.88
2018-08-28T11:56:30.243Z,1020.88
2018-08-28T11:57:39.813Z,1020.85
2018-08-28T11:58:49.687Z,1020.87
2018-08-28T11:59:59.530Z,1020.87
2018-08-28T12:01:09.647Z,1020.89
2018-08-28T12:02:19.495Z,1020.87
2018-08-28T12:03:29.344Z,1020.86
2018-08-28T12:04:39.458Z,1020.83
2018-08-28T12:05:49.111Z,1020.84
2018-08-28T12:06:58.761Z,1020.82
2018-08-28T12:08:09.056Z,1020.82
2018-08-28T12:09:18.904Z,1020.74
2018-08-28T12:10:27.945Z,1020.8
2018-08-28T12:11:37.534Z,1020.77
2018-08-28T12:12:47.387Z,1020.74
2018-08-28T12:13:56.695Z,1020.75
2018-08-28T12:15:06.276Z,1020.76
2018-08-28T12:16:15.856Z,1020.72
2018-08-28T12:17:25.444Z,1020.72
2018-08-28T12:18:35.604Z,1020.75
2018-08-28T12:19:45.454Z,1020.73
2018-08-28T12:20:55.101Z,1020.76
2018-08-28T12:22:04.239Z,1020.72
2018-08-28T12:23:14.084Z,1020.7
2018-08-28T12:24:23.906Z,1020.72
2018-08-28T12:25:32.951Z,1020.75
2018-08-28T12:26:42.853Z,1020.75
2018-08-28T12:27:53.172Z,1020.73
2018-08-28T12:29:02.478Z,1020.74
2018-08-28T12:30:12.058Z,1020.75
2018-08-28T12:31:21.907Z,1020.68
2018-08-28T12:32:32.027Z,1020.72
2018-08-28T12:33:41.604Z,1020.67
2018-08-28T12:34:51.457Z,1020.69
2018-08-28T12:36:01.305Z,1020.64
2018-08-28T12:37:11.230Z,1020.68
2018-08-28T12:38:20.770Z,1020.69
2018-08-28T12:39:30.081Z,1020.69
2018-08-28T12:40:39.666Z,1020.71
2018-08-28T12:41:49.791Z,1020.68
2018-08-28T12:42:59.102Z,1020.68
2018-08-28T12:44:09.387Z,1020.73
2018-08-28T12:45:19.631Z,1020.71
2018-08-28T12:46:29.213Z,1020.69
2018-08-28T12:47:39.087Z,1020.73
2018-08-28T12:48:48.683Z,1020.73
2018-08-28T12:49:58.570Z,1020.72
2018-08-28T12:51:08.698Z,1020.7
2018-08-28T12:52:18.425Z,1020.64
2018-08-28T12:53:28.282Z,1020.64
2018-08-28T12:54:38.402Z,1020.61
2018-08-28T12:55:48.017Z,1020.63
2018-08-28T12:56:57.893Z,1020.63
2018-08-28T12:58:08.017Z,1020.63
2018-08-28T12:59:17.618Z,1020.62
2018-08-28T13:00:27.257Z,1020.63
2018-08-28T13:01:37.451Z,1020.63
2018-08-28T13:02:47.330Z,1020.67
2018-08-28T13:03:57.184Z,1020.71
2018-08-28T13:05:06.521Z,1020.64
2018-08-28T13:06:16.099Z,1020.65
2018-08-28T13:07:25.840Z,1020.62
2018-08-28T13:08:36.482Z,1020.59
2018-08-28T13:09:46.447Z,1020.63
2018-08-28T13:10:56.576Z,1020.6
2018-08-28T13:12:06.437Z,1020.61
2018-08-28T13:13:16.560Z,1020.6
2018-08-28T13:14:26.696Z,1020.6
2018-08-28T13:15:36.894Z,1020.67
2018-08-28T13:16:46.748Z,1020.61
2018-08-28T13:17:56.056Z,1020.63
2018-08-28T13:19:05.957Z,1020.62
2018-08-28T13:20:15.813Z,1020.62
2018-08-28T13:21:25.738Z,1020.56
2018-08-28T13:22:35.864Z,1020.53
2018-08-28T13:23:45.447Z,1020.51
2018-08-28T13:24:55.562Z,1020.5
2018-08-28T13:26:05.150Z,1020.49
2018-08-28T13:27:14.804Z,1020.47
2018-08-28T13:28:24.377Z,1020.45
2018-08-28T13:29:33.960Z,1020.48
2018-08-28T13:30:43.267Z,1020.51
2018-08-28T13:31:53.393Z,1020.5
2018-08-28T13:33:03.244Z,1020.48
2018-08-28T13:34:12.830Z,1020.53
2018-08-28T13:35:22.412Z,1020.47
2018-08-28T13:36:32.290Z,1020.49
2018-08-28T13:37:41.875Z,1020.5
2018-08-28T13:38:51.460Z,1020.49
2018-08-28T13:40:01.313Z,1020.47
2018-08-28T13:41:11.620Z,1020.45
2018-08-28T13:42:21.200Z,1020.48
2018-08-28T13:43:31.061Z,1020.47
2018-08-28T13:44:40.641Z,1020.49
2018-08-28T13:45:50.219Z,1020.46
2018-08-28T13:47:00.098Z,1020.52
2018-08-28T13:48:10.875Z,1020.49
2018-08-28T13:49:21.018Z,1020.5
2018-08-28T13:50:30.323Z,1020.51
2018-08-28T13:51:40.465Z,1020.45
2018-08-28T13:52:50.594Z,1020.4
2018-08-28T13:54:00.232Z,1020.43
2018-08-28T13:55:10.336Z,1020.41
2018-08-28T13:56:19.930Z,1020.41
2018-08-28T13:57:29.780Z,1020.4
2018-08-28T13:58:39.656Z,1020.39
2018-08-28T13:59:49.610Z,1020.39
2018-08-28T14:01:00.203Z,1020.43
2018-08-28T14:02:09.803Z,1020.37
2018-08-28T14:03:19.930Z,1020.42
2018-08-28T14:04:29.533Z,1020.39
2018-08-28T14:05:39.123Z,1020.4
2018-08-28T14:06:48.713Z,1020.42